Time;durP1;ratioP1;P1;durP2;ratioP2;P2;SDS_P1;SDS_P2;PMS_P1;PMS_P2;Temp;Humidity;BMP_temperature;BMP_pressure;BME280_temperature;BME280_humidity;BME280_pressure;Samples;Min_cycle;Max_cycle;Signal;HPM_P1;HPM_P2
2021/04/12 00:00:09;;;;;;;21.77;3.83;;;35.90;17.30;;;;;;5090165;28;20097;-57
2021/04/12 00:02:47;;;;;;;13.55;3.88;;;35.90;17.30;;;;;;5077442;28;20453;-56
2021/04/12 00:05:25;;;;;;;10.25;3.20;;;35.90;17.30;;;;;;5085900;28;20088;-54
2021/04/12 00:08:13;;;;;;;17.42;3.90;;;35.80;16.70;;;;;;5089079;28;20163;-57
2021/04/12 00:10:55;;;;;;;22.63;4.00;;;35.60;16.60;;;;;;5093188;28;20951;-55
2021/04/12 00:13:30;;;;;;;17.63;3.20;;;35.40;16.90;;;;;;5089477;28;20123;-55
2021/04/12 00:16:11;;;;;;;19.60;3.53;;;35.40;17.00;;;;;;5091849;28;20072;-56
2021/04/12 00:18:58;;;;;;;12.93;3.63;;;35.50;17.20;;;;;;5091813;28;20088;-53
2021/04/12 00:21:33;;;;;;;17.00;3.40;;;35.20;16.70;;;;;;5072061;28;20434;-55
2021/04/12 00:24:09;;;;;;;9.90;3.20;;;35.10;16.40;;;;;;5087693;28;20099;-52
2021/04/12 00:26:50;;;;;;;27.73;4.13;;;34.90;16.60;;;;;;5089646;28;20068;-58
2021/04/12 00:29:34;;;;;;;20.90;3.95;;;34.80;16.20;;;;;;5091847;28;20632;-53
2021/04/12 00:32:30;;;;;;;15.35;3.10;;;34.60;16.00;;;;;;5097652;28;20168;-52
2021/04/12 00:35:15;;;;;;;14.18;2.92;;;34.50;16.10;;;;;;5081212;28;20211;-51
2021/04/12 00:37:50;;;;;;;17.27;3.85;;;34.30;16.20;;;;;;5092964;28;20092;-51
2021/04/12 00:40:29;;;;;;;12.82;3.60;;;34.20;16.30;;;;;;5089205;28;20195;-52
2021/04/12 00:43:21;;;;;;;13.20;3.53;;;34.10;15.30;;;;;;5091434;28;20072;-56
2021/04/12 00:46:18;;;;;;;19.27;3.40;;;33.90;14.70;;;;;;5090529;28;20084;-53
2021/04/12 00:49:12;;;;;;;22.38;4.30;;;33.90;14.70;;;;;;5095204;28;20077;-55
2021/04/12 00:52:07;;;;;;;16.33;3.60;;;33.80;14.60;;;;;;5075824;28;20520;-53
2021/04/12 00:54:53;;;;;;;17.40;3.22;;;33.90;14.70;;;;;;5093392;28;20077;-56
2021/04/12 00:57:40;;;;;;;20.30;3.13;;;34.00;14.30;;;;;;5096025;28;20088;-55
2021/04/12 01:00:10;;;;;;;16.05;3.20;;;34.30;14.40;;;;;;5089785;28;20093;-55
2021/04/12 01:03:01;;;;;;;12.73;2.80;;;34.40;14.40;;;;;;5091993;28;20073;-53
2021/04/12 01:05:46;;;;;;;10.27;2.83;;;34.20;14.10;;;;;;5089463;28;20112;-55
2021/04/12 01:08:15;;;;;;;10.57;2.70;;;34.00;14.10;;;;;;5091536;28;20082;-54
2021/04/12 01:11:23;;;;;;;16.10;3.00;;;33.90;14.40;;;;;;5092879;28;20073;-57
2021/04/12 01:14:12;;;;;;;16.45;3.08;;;33.80;14.70;;;;;;5035246;28;20108;-52
2021/04/12 01:17:00;;;;;;;12.98;3.22;;;33.60;14.60;;;;;;5058577;28;20083;-55
2021/04/12 01:20:02;;;;;;;19.38;3.25;;;33.50;15.10;;;;;;5094480;28;20235;-52
2021/04/12 01:22:59;;;;;;;18.67;3.25;;;33.50;15.80;;;;;;5093660;28;20080;-56
2021/04/12 01:26:04;;;;;;;20.55;3.63;;;33.50;16.70;;;;;;5088019;28;20066;-54
2021/04/12 01:28:56;;;;;;;21.98;3.55;;;33.30;17.00;;;;;;5091377;28;20087;-55
2021/04/12 01:31:45;;;;;;;16.27;3.78;;;33.20;17.60;;;;;;5090990;28;20076;-56
2021/04/12 01:34:49;;;;;;;21.75;4.05;;;33.10;18.20;;;;;;5097770;28;20079;-56
2021/04/12 01:37:34;;;;;;;16.95;3.78;;;33.00;18.60;;;;;;5094195;28;20120;-54
2021/04/12 01:40:24;;;;;;;23.13;4.72;;;33.00;18.90;;;;;;5092623;28;20088;-55
2021/04/12 01:43:10;;;;;;;18.58;3.97;;;32.90;18.80;;;;;;5098236;28;20080;-53
2021/04/12 01:45:39;;;;;;;13.77;3.55;;;32.80;18.70;;;;;;5088592;28;20421;-57
2021/04/12 01:48:16;;;;;;;18.08;3.75;;;32.70;18.50;;;;;;5096394;28;20084;-53
2021/04/12 01:51:20;;;;;;;18.60;3.63;;;32.60;18.30;;;;;;5094979;28;20532;-52
2021/04/12 01:54:26;;;;;;;13.02;3.72;;;32.50;18.00;;;;;;5066160;28;20107;-54
2021/04/12 01:57:16;;;;;;;17.50;3.92;;;32.40;17.80;;;;;;5099117;28;20475;-55
2021/04/12 02:00:14;;;;;;;20.65;4.50;;;32.30;17.80;;;;;;5094819;28;20088;-56
2021/04/12 02:03:04;;;;;;;27.55;4.47;;;32.30;18.20;;;;;;5098633;28;20088;-55
2021/04/12 02:06:05;;;;;;;18.55;4.05;;;32.20;18.80;;;;;;5061959;28;20079;-55
2021/04/12 02:08:43;;;;;;;22.35;4.40;;;32.10;19.10;;;;;;5099552;28;20075;-55
2021/04/12 02:11:16;;;;;;;15.95;5.63;;;32.00;19.40;;;;;;5099521;28;20114;-55
2021/04/12 02:14:14;;;;;;;25.02;6.07;;;32.00;19.90;;;;;;5098570;28;20413;-54
2021/04/12 02:16:56;;;;;;;28.38;6.47;;;31.80;20.20;;;;;;5100509;28;20088;-55
2021/04/12 02:19:44;;;;;;;32.70;6.60;;;31.80;20.60;;;;;;5094211;28;20126;-54
2021/04/12 02:22:25;;;;;;;37.15;9.23;;;31.60;20.90;;;;;;5100828;28;20129;-58
2021/04/12 02:25:13;;;;;;;45.50;10.05;;;31.50;21.30;;;;;;5098573;28;20083;-57
2021/04/12 02:28:12;;;;;;;46.45;9.18;;;31.40;21.80;;;;;;5094627;28;20088;-54
2021/04/12 02:30:48;;;;;;;61.03;8.15;;;31.30;22.20;;;;;;5091105;28;20508;-53
2021/04/12 02:33:34;;;;;;;37.33;6.88;;;31.20;22.70;;;;;;5097113;28;20092;-56
2021/04/12 02:36:08;;;;;;;30.42;6.72;;;31.00;23.40;;;;;;5097922;28;20077;-56
2021/04/12 02:39:05;;;;;;;36.97;7.18;;;30.90;24.10;;;;;;5093459;28;20072;-57
2021/04/12 02:41:54;;;;;;;43.37;6.73;;;30.80;24.70;;;;;;5060390;28;20127;-51
2021/04/12 02:44:44;;;;;;;42.95;5.70;;;30.70;25.50;;;;;;5092895;28;20068;-57
2021/04/12 02:47:41;;;;;;;48.22;6.10;;;30.50;26.20;;;;;;5083936;28;20071;-55
2021/04/12 02:50:19;;;;;;;25.98;4.65;;;30.40;26.50;;;;;;5094988;28;20521;-55
2021/04/12 02:53:24;;;;;;;28.48;5.50;;;30.40;27.20;;;;;;5099250;28;20152;-56
2021/04/12 02:56:27;;;;;;;30.90;6.20;;;30.20;27.30;;;;;;5045733;28;20088;-53
2021/04/12 02:59:21;;;;;;;29.50;6.18;;;30.10;27.90;;;;;;5095977;28;20076;-52
2021/04/12 03:02:08;;;;;;;33.05;6.30;;;30.00;28.30;;;;;;5096803;28;20179;-52
2021/04/12 03:04:59;;;;;;;31.40;6.05;;;29.90;28.50;;;;;;5097720;28;20069;-57
2021/04/12 03:07:36;;;;;;;31.73;5.63;;;29.80;28.70;;;;;;5098327;28;20088;-61
2021/04/12 03:10:05;;;;;;;;;;;29.80;29.00;;;;;;5094509;28;20076;-61
2021/04/12 03:12:59;;;;;;;33.50;5.97;;;29.60;29.20;;;;;;5089790;28;20037;-60
2021/04/12 03:15:43;;;;;;;24.35;5.43;;;29.60;29.50;;;;;;5095723;28;20072;-60
2021/04/12 03:18:22;;;;;;;22.50;5.32;;;29.50;29.70;;;;;;5098995;28;20064;-61
2021/04/12 03:21:13;;;;;;;24.67;4.88;;;29.40;30.00;;;;;;5095656;28;20096;-61
2021/04/12 03:24:09;;;;;;;28.08;4.60;;;29.30;30.30;;;;;;5094978;28;20071;-61
2021/04/12 03:27:09;;;;;;;16.13;3.65;;;29.20;30.50;;;;;;5091540;28;20069;-62
2021/04/12 03:29:47;;;;;;;20.00;4.35;;;29.10;30.70;;;;;;5094194;28;20146;-63
2021/04/12 03:32:58;;;;;;;24.92;3.88;;;29.10;31.00;;;;;;5093859;28;20072;-62
2021/04/12 03:35:49;;;;;;;18.00;4.20;;;29.00;31.20;;;;;;5031153;28;20089;-64
2021/04/12 03:38:41;;;;;;;15.70;4.03;;;28.90;31.30;;;;;;5091222;28;20517;-61
2021/04/12 03:41:22;;;;;;;21.60;5.25;;;28.80;30.80;;;;;;5092370;28;20093;-62
2021/04/12 03:44:10;;;;;;;26.80;4.70;;;28.80;31.00;;;;;;5093411;28;20104;-60
2021/04/12 03:46:46;;;;;;;29.52;5.57;;;28.60;30.40;;;;;;5095991;28;20114;-61
2021/04/12 03:49:48;;;;;;;16.10;5.60;;;28.60;31.00;;;;;;5091045;28;20986;-60
2021/04/12 03:52:27;;;;;;;19.02;4.88;;;28.60;30.60;;;;;;5092803;28;20100;-62
2021/04/12 03:55:07;;;;;;;19.63;5.70;;;28.40;28.90;;;;;;5096637;28;20100;-59
2021/04/12 03:58:22;;;;;;;26.00;5.18;;;28.10;35.20;;;;;;5091886;28;20075;-61
2021/04/12 04:01:18;;;;;;;19.45;5.07;;;28.20;28.00;;;;;;5082844;28;20610;-62
2021/04/12 04:04:01;;;;;;;28.17;4.60;;;;;;;;;;5056132;28;20085;-64
2021/04/12 04:07:05;;;;;;;19.10;3.53;;;28.10;28.20;;;;;;5091599;28;20085;-62
2021/04/12 04:09:46;;;;;;;21.20;3.50;;;28.00;32.00;;;;;;5088191;28;20508;-64
2021/04/12 04:12:50;;;;;;;16.33;4.05;;;28.10;28.40;;;;;;5073448;28;20080;-64
2021/04/12 04:15:56;;;;;;;19.95;4.32;;;28.00;28.80;;;;;;5092149;28;20069;-62
2021/04/12 04:18:35;;;;;;;19.27;2.70;;;28.00;28.80;;;;;;5095831;28;20192;-64
2021/04/12 04:21:20;;;;;;;19.38;3.30;;;27.90;28.50;;;;;;5086451;28;20146;-65
2021/04/12 04:24:28;;;;;;;13.60;3.08;;;27.90;29.10;;;;;;5096257;28;20104;-63
2021/04/12 04:27:23;;;;;;;15.52;3.22;;;27.80;29.00;;;;;;5093714;28;20083;-62
2021/04/12 04:30:27;;;;;;;14.25;2.72;;;27.70;29.30;;;;;;5096088;28;20083;-64
2021/04/12 04:33:11;;;;;;;15.45;3.00;;;27.60;29.70;;;;;;5023125;28;20092;-65
2021/04/12 04:35:57;;;;;;;16.90;3.10;;;27.60;30.00;;;;;;5091394;28;20065;-62
2021/04/12 04:39:00;;;;;;;16.63;3.10;;;27.50;30.60;;;;;;5094038;28;20084;-63
2021/04/12 04:41:32;;;;;;;20.90;3.47;;;27.50;31.50;;;;;;5093694;28;20097;-62
2021/04/12 04:43:59;;;;;;;13.02;3.15;;;27.30;32.30;;;;;;5092627;28;20072;-62
2021/04/12 04:46:25;;;;;;;16.20;3.47;;;;;;;;;;5093805;28;20115;-62
2021/04/12 04:49:03;;;;;;;14.07;3.40;;;27.20;32.50;;;;;;5100237;28;20549;-60
2021/04/12 04:51:51;;;;;;;13.02;3.78;;;27.20;32.50;;;;;;5091200;28;20129;-62
2021/04/12 04:54:42;;;;;;;24.13;4.10;;;27.10;33.20;;;;;;5101770;28;20475;-61
2021/04/12 04:57:08;;;;;;;21.70;3.83;;;27.10;33.90;;;;;;5094296;28;20076;-64
2021/04/12 05:00:12;;;;;;;18.10;3.97;;;26.90;35.10;;;;;;5098866;28;20087;-60
2021/04/12 05:03:04;;;;;;;22.38;4.25;;;26.90;35.00;;;;;;5099492;28;20069;-63
2021/04/12 05:05:56;;;;;;;25.35;4.55;;;26.90;35.30;;;;;;5095889;28;20081;-62
2021/04/12 05:08:44;;;;;;;24.13;5.57;;;26.80;35.70;;;;;;5094617;28;20076;-61
2021/04/12 05:11:29;;;;;;;24.00;6.78;;;26.70;35.90;;;;;;5093447;28;20069;-62
2021/04/12 05:14:11;;;;;;;41.45;8.38;;;26.60;36.60;;;;;;5090099;28;20077;-60
2021/04/12 05:16:56;;;;;;;30.15;6.68;;;26.50;37.00;;;;;;5091407;28;20088;-60
2021/04/12 05:19:45;;;;;;;28.52;6.68;;;26.50;38.30;;;;;;5093690;28;20509;-59
2021/04/12 05:22:25;;;;;;;23.23;6.53;;;26.30;38.90;;;;;;5089229;28;20072;-61
2021/04/12 05:24:59;;;;;;;28.10;7.20;;;26.20;39.20;;;;;;5096710;28;20067;-60
2021/04/12 05:27:30;;;;;;;26.83;6.70;;;26.20;39.60;;;;;;5092811;28;20069;-60
2021/04/12 05:30:18;;;;;;;23.05;6.60;;;26.10;40.00;;;;;;5094417;28;20215;-58
2021/04/12 05:33:27;;;;;;;27.30;6.20;;;26.00;40.00;;;;;;5103101;28;20147;-61
2021/04/12 05:36:21;;;;;;;32.65;7.15;;;26.00;40.00;;;;;;5097905;28;20626;-59
2021/04/12 05:39:03;;;;;;;31.85;7.20;;;26.00;40.10;;;;;;5100471;28;20502;-62
2021/04/12 05:41:44;;;;;;;31.52;6.85;;;25.90;40.30;;;;;;5099482;28;20088;-54
2021/04/12 05:44:26;;;;;;;32.13;7.35;;;25.90;40.50;;;;;;5097380;28;20082;-52
2021/04/12 05:47:07;;;;;;;29.02;6.72;;;25.80;40.90;;;;;;5100826;28;20073;-58
2021/04/12 05:49:52;;;;;;;31.02;6.63;;;25.70;40.80;;;;;;5100496;28;20076;-57
2021/04/12 05:52:47;;;;;;;26.77;6.13;;;25.70;41.10;;;;;;5094201;28;20519;-56
2021/04/12 05:55:48;;;;;;;22.73;6.72;;;25.70;41.20;;;;;;5094428;28;20122;-55
2021/04/12 05:58:52;;;;;;;23.50;6.50;;;25.70;41.70;;;;;;5096926;28;20113;-54
2021/04/12 06:01:24;;;;;;;29.67;6.13;;;25.60;42.60;;;;;;5098665;28;20112;-53
2021/04/12 06:04:22;;;;;;;29.75;7.47;;;25.50;43.30;;;;;;5098635;28;20071;-51
2021/04/12 06:06:51;;;;;;;27.33;7.90;;;25.40;44.00;;;;;;5095158;28;20463;-54
2021/04/12 06:09:45;;;;;;;21.55;6.95;;;25.30;45.70;;;;;;5096890;28;20064;-52
2021/04/12 06:12:39;;;;;;;32.30;6.80;;;25.20;46.10;;;;;;5096403;28;20176;-53
2021/04/12 06:15:30;;;;;;;24.20;5.18;;;25.10;46.20;;;;;;5097889;28;20171;-53
2021/04/12 06:18:45;;;;;;;27.67;5.95;;;24.90;46.60;;;;;;5097661;28;20077;-55
2021/04/12 06:21:38;;;;;;;35.33;5.05;;;24.80;47.40;;;;;;5096802;28;20096;-54
2021/04/12 06:24:19;;;;;;;14.63;4.10;;;24.70;48.50;;;;;;5056700;28;20150;-54
2021/04/12 06:26:59;;;;;;;15.23;4.90;;;24.60;49.80;;;;;;5097289;28;20524;-52
2021/04/12 06:30:10;;;;;;;20.42;4.90;;;24.60;50.70;;;;;;5096691;28;20410;-53
2021/04/12 06:33:04;;;;;;;22.85;5.10;;;24.30;51.60;;;;;;5049153;28;20124;-54
2021/04/12 06:35:54;;;;;;;22.98;4.80;;;24.20;53.10;;;;;;5095420;28;20076;-55
2021/04/12 06:38:34;;;;;;;30.92;6.40;;;24.10;54.70;;;;;;5052591;28;20084;-51
2021/04/12 06:41:38;;;;;;;25.23;6.22;;;24.00;55.50;;;;;;5097711;28;20187;-55
2021/04/12 06:44:39;;;;;;;26.20;5.65;;;24.00;56.00;;;;;;5098304;28;20117;-54
2021/04/12 06:47:27;;;;;;;20.95;5.07;;;24.00;56.50;;;;;;5095273;28;20090;-55
2021/04/12 06:50:05;;;;;;;20.88;4.80;;;23.90;57.10;;;;;;5095727;28;20077;-53
2021/04/12 06:53:06;;;;;;;28.13;5.43;;;23.80;57.70;;;;;;5097220;28;20124;-52
2021/04/12 06:55:56;;;;;;;25.40;5.00;;;23.70;58.70;;;;;;5094393;28;20631;-53
2021/04/12 06:58:53;;;;;;;31.42;5.80;;;23.60;59.70;;;;;;5064952;28;20092;-52
2021/04/12 07:01:50;;;;;;;19.55;5.18;;;23.50;60.90;;;;;;5100740;28;20120;-51
2021/04/12 07:04:19;;;;;;;30.08;6.10;;;23.40;62.00;;;;;;5099111;28;20541;-52
2021/04/12 07:07:20;;;;;;;25.65;5.28;;;23.50;63.00;;;;;;5094492;28;20092;-53
2021/04/12 07:10:13;;;;;;;25.77;4.90;;;23.40;63.90;;;;;;5092728;28;20592;-51
2021/04/12 07:13:02;;;;;;;23.08;5.32;;;23.40;65.10;;;;;;5095546;28;20143;-52
2021/04/12 07:15:47;;;;;;;25.55;5.40;;;23.30;66.30;;;;;;5097046;28;20104;-52
2021/04/12 07:18:32;;;;;;;30.75;5.38;;;23.30;67.00;;;;;;5097569;28;20068;-52
2021/04/12 07:21:26;;;;;;;25.27;5.88;;;23.40;67.50;;;;;;5093148;28;20557;-54
2021/04/12 07:24:29;;;;;;;23.63;5.63;;;23.30;68.50;;;;;;5094511;28;20080;-53
2021/04/12 07:27:21;;;;;;;28.50;5.22;;;23.30;69.60;;;;;;5096385;28;20612;-50
2021/04/12 07:30:12;;;;;;;27.10;5.32;;;23.40;69.20;;;;;;5094724;28;20072;-49
2021/04/12 07:32:57;;;;;;;21.48;5.30;;;23.30;69.70;;;;;;5096295;28;21635;-52
2021/04/12 07:35:41;;;;;;;20.25;4.43;;;23.30;70.70;;;;;;5096003;28;20101;-51
2021/04/12 07:38:29;;;;;;;29.08;5.55;;;23.30;71.20;;;;;;5095093;28;20077;-51
2021/04/12 07:41:19;;;;;;;26.90;5.43;;;23.30;72.10;;;;;;5096747;28;20123;-52
2021/04/12 07:44:13;;;;;;;24.55;5.70;;;23.30;72.40;;;;;;5097764;28;20117;-50
2021/04/12 07:46:58;;;;;;;24.05;5.63;;;23.20;75.50;;;;;;5094479;28;20084;-52
2021/04/12 07:50:23;;;;;;;21.50;4.88;;;23.10;76.70;;;;;;5093926;28;20075;-50
2021/04/12 07:53:22;;;;;;;34.10;6.55;;;23.00;79.20;;;;;;5080156;28;20080;-50
2021/04/12 07:56:28;;;;;;;32.10;6.25;;;22.90;82.30;;;;;;5096450;28;20068;-50
2021/04/12 07:59:27;;;;;;;24.17;6.40;;;22.80;84.30;;;;;;5092388;28;20080;-51
2021/04/12 08:02:30;;;;;;;25.33;6.13;;;22.80;84.90;;;;;;5097541;28;20109;-55
2021/04/12 08:05:02;;;;;;;32.72;6.60;;;22.80;87.20;;;;;;5101010;28;20397;-50
2021/04/12 08:07:47;;;;;;;26.40;6.18;;;22.80;88.60;;;;;;5096667;28;20101;-51
2021/04/12 08:10:29;;;;;;;25.20;5.63;;;22.70;90.20;;;;;;5095718;28;20156;-51
2021/04/12 08:13:06;;;;;;;32.15;5.45;;;22.70;90.80;;;;;;5097311;28;20189;-50
2021/04/12 08:15:45;;;;;;;29.65;6.15;;;22.60;92.30;;;;;;5093930;28;20134;-53
2021/04/12 08:18:29;;;;;;;26.15;5.53;;;22.50;93.60;;;;;;5096698;28;20068;-52
2021/04/12 08:21:33;;;;;;;25.05;6.13;;;22.50;94.30;;;;;;5092899;28;20464;-50
2021/04/12 08:24:27;;;;;;;31.58;6.82;;;22.40;95.30;;;;;;5093400;28;20080;-51
2021/04/12 08:27:14;;;;;;;33.35;6.38;;;22.30;98.10;;;;;;5099780;28;20060;-53
2021/04/12 08:30:13;;;;;;;31.42;6.28;;;22.20;99.90;;;;;;5092328;28;20117;-51
2021/04/12 08:33:04;;;;;;;34.30;6.40;;;22.20;99.90;;;;;;5092104;28;20088;-51
2021/04/12 08:36:04;;;;;;;33.00;6.60;;;22.10;99.90;;;;;;5090644;28;20068;-50
2021/04/12 08:39:08;;;;;;;32.92;6.60;;;22.10;99.90;;;;;;5090089;28;20124;-52
2021/04/12 08:41:52;;;;;;;24.42;6.35;;;22.00;99.90;;;;;;5089971;28;20107;-52
2021/04/12 08:44:57;;;;;;;35.70;7.07;;;22.00;99.90;;;;;;5094187;28;20138;-51
2021/04/12 08:47:58;;;;;;;34.72;6.50;;;21.90;99.90;;;;;;5095863;28;20125;-54
2021/04/12 08:50:36;;;;;;;24.05;6.63;;;21.80;99.90;;;;;;5092434;28;20160;-51
2021/04/12 08:53:24;;;;;;;31.65;6.70;;;21.80;99.90;;;;;;5093775;28;20079;-54
2021/04/12 08:56:27;;;;;;;30.58;7.07;;;21.80;99.90;;;;;;5093919;28;20080;-52
2021/04/12 08:59:34;;;;;;;32.33;7.78;;;21.80;99.90;;;;;;5094562;28;20135;-51
2021/04/12 09:02:28;;;;;;;37.95;7.38;;;21.70;99.90;;;;;;5083862;28;20096;-49
2021/04/12 09:05:25;;;;;;;33.70;6.07;;;21.60;99.90;;;;;;5096370;28;20159;-50
2021/04/12 09:08:10;;;;;;;37.05;6.90;;;21.50;99.90;;;;;;5099735;28;20951;-50
2021/04/12 09:11:01;;;;;;;26.13;6.55;;;21.50;99.90;;;;;;5097938;28;20065;-49
2021/04/12 09:14:12;;;;;;;30.20;6.53;;;21.40;99.90;;;;;;5098211;28;20568;-49
2021/04/12 09:16:56;;;;;;;27.70;7.25;;;21.50;99.90;;;;;;5055803;28;20108;-49
2021/04/12 09:19:44;;;;;;;38.72;7.53;;;21.40;99.90;;;;;;5098335;28;20078;-49
2021/04/12 09:22:33;;;;;;;32.20;7.30;;;21.30;99.90;;;;;;5094293;28;20076;-49
2021/04/12 09:25:27;;;;;;;30.55;6.95;;;21.30;99.90;;;;;;5099388;28;20083;-51
2021/04/12 09:27:56;;;;;;;33.08;7.25;;;21.30;99.90;;;;;;5095096;28;20076;-52
2021/04/12 09:30:31;;;;;;;29.98;7.30;;;21.10;99.90;;;;;;5098724;28;20081;-51
2021/04/12 09:33:36;;;;;;;36.13;7.70;;;21.20;99.90;;;;;;5100017;28;20068;-50
2021/04/12 09:36:40;;;;;;;34.60;7.28;;;21.10;99.90;;;;;;5072625;28;20138;-53
2021/04/12 09:39:36;;;;;;;31.38;7.65;;;20.90;99.90;;;;;;5101409;28;20067;-50
2021/04/12 09:42:39;;;;;;;36.28;8.20;;;20.90;99.90;;;;;;5079011;28;20117;-50
2021/04/12 09:45:42;;;;;;;35.63;8.45;;;20.90;99.90;;;;;;5091337;28;20076;-51
2021/04/12 09:48:48;;;;;;;30.88;7.25;;;20.80;99.90;;;;;;5098349;28;20077;-53
2021/04/12 09:51:45;;;;;;;33.50;7.55;;;20.90;99.90;;;;;;5096723;28;20087;-51
2021/04/12 09:54:17;;;;;;;37.25;7.78;;;20.80;99.90;;;;;;5093425;28;20548;-50
2021/04/12 09:56:56;;;;;;;30.10;7.82;;;20.80;99.90;;;;;;5095862;28;20080;-53
2021/04/12 10:00:00;;;;;;;34.28;7.70;;;20.60;99.90;;;;;;5101688;28;20431;-52
2021/04/12 10:02:32;;;;;;;33.28;7.13;;;20.60;99.90;;;;;;5097204;28;20541;-50
2021/04/12 10:05:17;;;;;;;38.15;7.85;;;20.50;99.90;;;;;;5096177;28;20093;-52
2021/04/12 10:08:17;;;;;;;31.00;7.68;;;20.50;99.90;;;;;;5095019;28;20517;-51
2021/04/12 10:11:12;;;;;;;22.40;6.53;;;20.50;99.90;;;;;;5094563;28;20115;-50
2021/04/12 10:13:49;;;;;;;31.77;7.38;;;20.30;99.90;;;;;;5093280;28;20112;-51
2021/04/12 10:16:24;;;;;;;36.72;6.88;;;20.40;99.90;;;;;;5096401;28;20099;-50
2021/04/12 10:19:19;;;;;;;31.45;7.13;;;20.30;99.90;;;;;;5094398;28;20083;-54
2021/04/12 10:22:01;;;;;;;31.25;7.93;;;20.40;99.90;;;;;;5087668;28;20457;-51
2021/04/12 10:24:31;;;;;;;34.05;6.97;;;20.50;99.90;;;;;;5097025;28;20521;-49
2021/04/12 10:27:01;;;;;;;29.90;6.63;;;20.50;99.90;;;;;;5095796;28;20073;-49
2021/04/12 10:29:42;;;;;;;29.42;6.93;;;20.60;99.90;;;;;;5096071;28;20104;-49
2021/04/12 10:32:24;;;;;;;32.85;7.35;;;20.50;99.90;;;;;;5093867;28;20080;-52
2021/04/12 10:35:09;;;;;;;31.45;8.85;;;20.40;99.90;;;;;;5099408;28;20084;-49
2021/04/12 10:38:02;;;;;;;37.10;10.23;;;20.30;99.90;;;;;;5094793;28;20155;-51
2021/04/12 10:40:47;;;;;;;30.10;8.73;;;20.20;99.90;;;;;;5093138;28;20105;-50
2021/04/12 10:43:44;;;;;;;68.57;24.00;;;20.20;99.90;;;;;;5097277;28;20068;-51
2021/04/12 10:46:38;;;;;;;46.58;13.27;;;20.20;99.90;;;;;;5096872;28;20157;-49
2021/04/12 10:49:28;;;;;;;32.95;9.48;;;20.10;99.90;;;;;;5099487;28;20072;-50
2021/04/12 10:52:04;;;;;;;31.98;7.30;;;20.10;99.90;;;;;;5093188;28;20469;-51
2021/04/12 10:54:46;;;;;;;48.72;10.05;;;20.10;99.90;;;;;;5097735;28;20106;-52
2021/04/12 10:57:25;;;;;;;42.80;10.25;;;20.10;99.90;;;;;;5095245;28;20541;-55
2021/04/12 10:59:57;;;;;;;42.13;10.43;;;20.10;99.90;;;;;;5097204;28;20067;-55
2021/04/12 11:02:28;;;;;;;38.35;8.65;;;20.10;99.90;;;;;;5097535;28;20084;-53
2021/04/12 11:05:06;;;;;;;31.10;7.35;;;20.10;99.90;;;;;;5093147;28;20076;-53
2021/04/12 11:07:57;;;;;;;32.03;7.35;;;20.00;99.90;;;;;;5094312;28;20149;-54
2021/04/12 11:10:40;;;;;;;35.55;7.78;;;20.00;99.90;;;;;;5096399;28;20147;-51
2021/04/12 11:13:32;;;;;;;30.73;7.43;;;20.00;99.90;;;;;;5094935;28;20198;-50
2021/04/12 11:16:13;;;;;;;26.92;7.65;;;20.00;99.90;;;;;;5091469;28;20479;-52
2021/04/12 11:18:39;;;;;;;28.85;7.40;;;19.90;99.90;;;;;;5099031;28;20076;-51
2021/04/12 11:21:11;;;;;;;;;;;19.80;99.90;;;;;;5096923;28;20176;-52
2021/04/12 11:23:51;;;;;;;45.28;7.72;;;19.80;99.90;;;;;;5096201;28;19960;-51
2021/04/12 11:26:25;;;;;;;27.38;6.82;;;19.80;99.90;;;;;;5095310;28;20071;-52
2021/04/12 11:29:19;;;;;;;30.70;8.05;;;19.90;99.90;;;;;;5097559;28;20161;-53
2021/04/12 11:32:21;;;;;;;35.67;8.75;;;19.90;99.90;;;;;;5096546;28;20079;-51
2021/04/12 11:35:06;;;;;;;36.55;8.52;;;19.90;99.90;;;;;;5080135;28;20450;-53
2021/04/12 11:38:08;;;;;;;38.92;9.15;;;19.80;99.90;;;;;;5097135;28;20467;-51
2021/04/12 11:40:38;;;;;;;33.05;8.32;;;19.70;99.90;;;;;;5091858;28;20451;-51
2021/04/12 11:43:16;;;;;;;37.00;9.05;;;19.70;99.90;;;;;;5094818;28;20076;-51
2021/04/12 11:46:10;;;;;;;38.53;9.10;;;19.70;99.90;;;;;;5100033;28;20420;-50
2021/04/12 11:48:54;;;;;;;33.15;8.93;;;19.70;99.90;;;;;;5096802;28;20085;-51
2021/04/12 11:51:51;;;;;;;39.20;9.35;;;19.70;99.90;;;;;;5090771;28;20155;-50
2021/04/12 11:54:29;;;;;;;31.13;7.95;;;19.70;99.90;;;;;;5097130;28;20080;-52
2021/04/12 11:57:33;;;;;;;33.22;8.23;;;19.60;99.90;;;;;;5097787;28;20159;-51
2021/04/12 12:00:10;;;;;;;29.45;7.68;;;19.70;99.90;;;;;;5096309;28;20449;-53
2021/04/12 12:02:47;;;;;;;31.67;9.02;;;19.60;99.90;;;;;;5094926;28;20087;-53
2021/04/12 12:05:19;;;;;;;;;;;19.70;99.90;;;;;;5093508;28;20060;-51
2021/04/12 12:07:49;;;;;;;30.27;9.50;;;19.60;99.90;;;;;;5095668;28;20039;-52
2021/04/12 12:10:43;;;;;;;36.15;9.07;;;19.60;99.90;;;;;;5090293;28;20095;-52
2021/04/12 12:13:50;;;;;;;35.47;9.27;;;19.70;99.90;;;;;;5092382;28;20529;-50
2021/04/12 12:16:25;;;;;;;36.05;9.68;;;19.60;99.90;;;;;;5070384;28;20085;-51
2021/04/12 12:18:52;;;;;;;40.65;9.25;;;19.60;99.90;;;;;;5098468;28;20091;-51
2021/04/12 12:21:23;;;;;;;;;;;19.50;99.90;;;;;;5094004;28;20119;-50
2021/04/12 12:24:02;;;;;;;46.75;12.75;;;19.40;99.90;;;;;;5090949;28;20306;-50
2021/04/12 12:26:35;;;;;;;41.22;12.90;;;19.40;99.90;;;;;;5094284;28;20073;-53
2021/04/12 12:29:03;;;;;;;44.20;11.88;;;19.30;99.90;;;;;;5093480;28;20079;-51
2021/04/12 12:31:34;;;;;;;48.35;13.32;;;20.30;99.90;;;;;;5094783;28;20460;-51
2021/04/12 12:34:24;;;;;;;38.92;10.60;;;19.40;99.90;;;;;;5096941;28;20164;-54
2021/04/12 12:37:03;;;;;;;35.03;10.25;;;19.40;99.90;;;;;;5088630;28;20068;-51
2021/04/12 12:39:40;;;;;;;37.05;10.48;;;19.40;99.90;;;;;;5091285;28;20079;-51
2021/04/12 12:42:14;;;;;;;46.10;11.45;;;19.40;99.90;;;;;;5092432;28;20110;-55
2021/04/12 12:44:43;;;;;;;39.78;11.10;;;19.40;99.90;;;;;;5090683;28;20069;-53
2021/04/12 12:47:16;;;;;;;35.78;10.43;;;19.40;99.90;;;;;;5091755;28;20542;-56
2021/04/12 12:49:49;;;;;;;38.40;9.82;;;19.30;99.90;;;;;;5093213;28;20609;-52
2021/04/12 12:52:41;;;;;;;38.92;12.60;;;19.30;99.90;;;;;;5091935;28;20133;-52
2021/04/12 12:55:27;;;;;;;46.15;18.20;;;19.20;99.90;;;;;;5095353;28;20437;-54
2021/04/12 12:57:56;;;;;;;63.40;34.83;;;19.20;99.90;;;;;;5093951;28;20103;-51
2021/04/12 13:00:34;;;;;;;73.40;40.50;;;19.10;99.90;;;;;;5090383;28;20092;-50
2021/04/12 13:03:15;;;;;;;64.00;33.70;;;19.10;99.90;;;;;;5091583;28;20072;-50
2021/04/12 13:05:44;;;;;;;57.10;25.90;;;19.20;99.90;;;;;;5088592;28;20118;-50
2021/04/12 13:08:13;;;;;;;49.10;18.70;;;19.20;99.90;;;;;;5093162;28;20417;-50
2021/04/12 13:10:46;;;;;;;38.78;13.75;;;19.20;99.90;;;;;;5094680;28;20087;-50
2021/04/12 13:13:25;;;;;;;52.50;14.45;;;19.20;99.90;;;;;;5093179;28;20112;-51
2021/04/12 13:15:52;;;;;;;36.08;12.35;;;19.20;99.90;;;;;;5094050;28;20521;-52
2021/04/12 13:18:21;;;;;;;42.58;11.55;;;19.20;99.90;;;;;;5091265;28;20080;-50
2021/04/12 13:20:56;;;;;;;38.90;10.80;;;19.30;99.90;;;;;;5095782;28;20124;-51
2021/04/12 13:23:44;;;;;;;43.42;11.77;;;19.20;99.90;;;;;;5094771;28;20082;-50
2021/04/12 13:26:41;;;;;;;43.28;10.43;;;19.10;99.90;;;;;;5085691;28;20150;-51
2021/04/12 13:29:31;;;;;;;52.35;15.85;;;19.20;99.90;;;;;;5096167;28;20493;-51
2021/04/12 13:32:03;;;;;;;73.38;25.63;;;19.10;99.90;;;;;;5093115;28;20080;-51
2021/04/12 13:35:04;;;;;;;95.40;37.15;;;19.00;99.90;;;;;;5092127;28;20085;-52
2021/04/12 13:38:03;;;;;;;125.55;54.35;;;19.10;99.90;;;;;;5092226;28;20533;-51
2021/04/12 13:41:15;;;;;;;138.77;69.30;;;18.90;99.90;;;;;;5092703;28;20122;-55
2021/04/12 13:43:45;;;;;;;122.03;55.85;;;18.60;99.90;;;;;;5092870;28;20444;-53
2021/04/12 13:46:28;;;;;;;130.13;49.22;;;19.30;99.90;;;;;;5098616;28;20517;-51
2021/04/12 13:49:06;;;;;;;93.88;34.83;;;;;;;;;;5095163;28;20063;-53
2021/04/12 13:51:45;;;;;;;83.80;26.77;;;19.20;99.90;;;;;;5098798;28;20075;-50
2021/04/12 13:54:26;;;;;;;55.20;19.65;;;19.20;99.90;;;;;;5096767;28;20166;-50
2021/04/12 13:57:19;;;;;;;50.30;17.35;;;19.00;99.90;;;;;;5093492;28;20077;-53
2021/04/12 13:59:55;;;;;;;54.72;14.85;;;19.50;99.90;;;;;;5087892;28;20088;-51
2021/04/12 14:02:36;;;;;;;49.40;15.17;;;19.40;99.90;;;;;;5097837;28;20430;-52
2021/04/12 14:05:09;;;;;;;45.75;12.73;;;19.40;99.90;;;;;;5099028;28;20155;-50
2021/04/12 14:07:51;;;;;;;46.33;12.38;;;19.50;99.90;;;;;;5102094;28;20072;-50
2021/04/12 14:10:17;;;;;;;49.10;13.18;;;19.50;99.90;;;;;;5098977;28;20529;-51
2021/04/12 14:12:43;;;;;;;;;;;19.60;99.90;;;;;;5099600;28;20662;-49
2021/04/12 14:15:14;;;;;;;40.22;10.90;;;19.70;99.90;;;;;;5096180;28;20417;-50
2021/04/12 14:17:48;;;;;;;41.60;11.57;;;19.90;99.90;;;;;;5096880;28;20076;-52